ROMMA est une association bénévole à but non lucratif. Votre soutien est indispensable : ADHERER à ROMMA ou FAIRE un DON

St-Christophe/Guiers - Berland - (38, Isère)

Massif de la Chartreuse (533 m)   Longitude: 05° 46' 44" E   Latitude: 45° 25' 43" N Station partenaire n°32
 

Détail journalier du     <<     >>

Température Precipitation Humidité Pression Vent Dir Rafale Dir. rafale Ensol.
Heure (°C) (mm) (%) (hPa) (km/h) (km/h) (min)
01:00 5.108910112ENE10ENE0
02:00 4.909010111---6ENE0
03:00 4.5091101100---0
04:00 3.8092101100---0
05:00 3.3092101105ENE0
06:00 2.9093101100---0
07:00 2.4094101100---0
08:00 2.709410111---8ENE0
09:00 4.3093101100---35
10:00 5.8090101105ESE60
11:00 9.008110101---6ONO60
12:00 10.807410104ONO11ONO55
13:00 11.707510096ONO16O45
14:00 12.607110097OSO18O40
15:00 12.906810087O19SO25
16:00 14.206610086O23O15
17:00 14.306410079O21OSO40
18:00 14.306310078O27OSO45
19:00 13.306510078O23NO35
20:00 9.81.69110082SO10SO0
21:00 8.318910092OSO8NE0
22:00 7.7092100906ONO0
23:00 7.6093100906ENE0
minuit 7.6094100905ENE0

Graphique du 09-04-2019

 

Serveur OMMA